Aviation Digital Data Service (ADDS)

Output produced by TAFs form (0453 UTC 30 March 2017)
found at http://www.aviationweather.gov/adds/tafs/
 
METAR text: RJTU 300446Z VRB04KT 9999 FEW030 BKN230 17/M00 Q1015 RMK 1CU030 6CI230 A3000
Conditions at: RJTU (UTSUNOMIYA (JGSD, JP) observed 0446 UTC 30 March 2017
Temperature: 17.0°C (63°F)
Dewpoint: 0.0°C (32°F) [RH = 32%]
Pressure (altimeter): 29.97 inches Hg (1015.0 mb)
Winds: variable direction winds at 5 MPH (4 knots; 2.1 m/s)
Visibility: 6 or more miles (10+ km)
Ceiling: 23000 feet AGL
Clouds: few clouds at 3000 feet AGL
broken clouds at 23000 feet AGL
Weather: no significant weather observed at this time